Time;durP1;ratioP1;P1;durP2;ratioP2;P2;SDS_P1;SDS_P2;PMS_P1;PMS_P2;Temp;Humidity;BMP_temperature;BMP_pressure;BME280_temperature;BME280_humidity;BME280_pressure;Samples;Min_cycle;Max_cycle;Signal;HPM_P1;HPM_P2
2022/05/09 00:01:04;;;;;;;31.20;17.75;;;10.40;84.00;;;;;;5011046;28;20049;-86
2022/05/09 00:03:31;;;;;;;28.65;17.80;;;10.30;83.90;;;;;;5018917;28;20500;-86
2022/05/09 00:05:57;;;;;;;25.63;17.50;;;10.40;84.00;;;;;;5019482;28;20029;-88
2022/05/09 00:08:22;;;;;;;24.85;16.58;;;10.40;84.00;;;;;;5026455;28;20051;-86
2022/05/09 00:10:48;;;;;;;25.17;17.58;;;10.30;84.00;;;;;;5020201;28;20918;-87
2022/05/09 00:13:14;;;;;;;31.27;17.42;;;10.30;83.90;;;;;;5012108;28;20076;-85
2022/05/09 00:15:39;;;;;;;30.27;18.50;;;10.40;83.80;;;;;;5025622;28;20115;-86
2022/05/09 00:18:05;;;;;;;27.55;17.30;;;10.30;83.80;;;;;;5013579;28;20029;-87
2022/05/09 00:20:31;;;;;;;25.55;17.00;;;10.30;83.80;;;;;;5016450;28;20715;-86
2022/05/09 00:22:56;;;;;;;30.45;17.85;;;10.40;83.60;;;;;;5016011;28;20045;-87
2022/05/09 00:25:25;;;;;;;26.20;17.23;;;10.40;83.40;;;;;;5012340;28;20163;-86
2022/05/09 00:27:51;;;;;;;27.08;17.13;;;10.40;83.30;;;;;;5011668;28;20748;-86
2022/05/09 00:30:17;;;;;;;23.33;15.93;;;10.40;83.30;;;;;;5028512;28;20060;-87
2022/05/09 00:32:43;;;;;;;23.25;16.90;;;10.40;83.30;;;;;;5022977;28;20071;-86
2022/05/09 00:35:09;;;;;;;29.95;16.55;;;10.40;83.30;;;;;;5011141;28;20051;-86
2022/05/09 00:37:36;;;;;;;30.38;18.52;;;10.40;83.20;;;;;;5014792;28;20041;-86
2022/05/09 00:40:03;;;;;;;25.95;17.55;;;10.30;83.20;;;;;;5011217;28;20514;-86
2022/05/09 00:42:29;;;;;;;24.02;17.80;;;10.30;83.30;;;;;;5017073;28;20903;-86
2022/05/09 00:44:55;;;;;;;27.70;17.73;;;10.30;83.40;;;;;;5020385;28;20048;-86
2022/05/09 00:47:21;;;;;;;29.25;17.42;;;10.30;83.40;;;;;;5017197;28;20457;-88
2022/05/09 00:49:54;;;;;;;24.70;17.13;;;10.30;83.60;;;;;;5018781;28;20052;-86
2022/05/09 00:52:24;;;;;;;25.92;16.85;;;10.30;83.50;;;;;;5016868;28;20038;-86
2022/05/09 00:54:56;;;;;;;27.65;18.23;;;10.20;83.70;;;;;;5019171;28;20117;-87
2022/05/09 00:57:40;;;;;;;23.52;17.90;;;10.20;83.80;;;;;;5012577;28;20132;-86
2022/05/09 01:00:12;;;;;;;28.47;18.10;;;10.10;83.90;;;;;;5019661;28;20843;-87
2022/05/09 01:02:41;;;;;;;29.05;18.35;;;10.10;83.90;;;;;;5016179;28;20643;-88
2022/05/09 01:05:07;;;;;;;31.25;18.00;;;10.10;83.90;;;;;;5016651;28;20022;-85
2022/05/09 01:07:33;;;;;;;26.38;18.23;;;10.10;84.00;;;;;;5042405;28;20029;-85
2022/05/09 01:09:59;;;;;;;27.35;18.33;;;10.10;84.20;;;;;;5019238;28;20072;-85
2022/05/09 01:12:32;;;;;;;33.38;20.13;;;10.00;84.30;;;;;;5011835;28;20112;-85
2022/05/09 01:15:05;;;;;;;29.58;17.92;;;10.00;84.50;;;;;;5008111;28;20037;-85
2022/05/09 01:17:32;;;;;;;26.85;19.30;;;9.90;84.60;;;;;;5019132;28;20037;-86
2022/05/09 01:20:00;;;;;;;30.00;20.70;;;9.90;84.90;;;;;;5014894;28;20073;-85
2022/05/09 01:22:29;;;;;;;33.60;19.85;;;9.90;84.80;;;;;;5023933;28;20832;-86
2022/05/09 01:25:00;;;;;;;32.40;21.98;;;9.90;85.10;;;;;;5011545;28;20157;-86
2022/05/09 01:27:25;;;;;;;36.30;21.23;;;9.90;85.20;;;;;;5015336;28;20038;-85
2022/05/09 01:29:51;;;;;;;37.10;23.30;;;9.90;85.50;;;;;;5018361;28;20068;-86
2022/05/09 01:32:27;;;;;;;32.97;21.27;;;9.90;85.60;;;;;;5015922;28;20441;-86
2022/05/09 01:35:01;;;;;;;34.42;22.95;;;9.90;85.60;;;;;;5016582;28;20195;-87
2022/05/09 01:37:28;;;;;;;35.57;22.97;;;9.80;85.60;;;;;;5019209;28;20036;-86
2022/05/09 01:39:54;;;;;;;32.17;23.23;;;9.70;86.00;;;;;;5011564;28;20111;-85
2022/05/09 01:42:20;;;;;;;33.75;22.88;;;9.70;86.30;;;;;;5020044;28;20429;-85
2022/05/09 01:44:46;;;;;;;33.67;23.63;;;9.70;86.30;;;;;;5017380;28;20121;-85
2022/05/09 01:49:56;;;;;;;32.97;23.20;;;9.60;86.70;;;;;;5017290;28;20053;-87
2022/05/09 01:52:21;;;;;;;35.65;23.95;;;9.60;86.90;;;;;;5007609;28;20041;-85
2022/05/09 01:54:47;;;;;;;30.35;23.45;;;9.60;87.00;;;;;;5001239;28;20038;-87
2022/05/09 01:57:14;;;;;;;37.92;24.08;;;9.60;87.00;;;;;;5011272;28;20774;-86
2022/05/09 01:59:41;;;;;;;30.55;22.98;;;9.50;86.80;;;;;;5018967;28;20160;-85
2022/05/09 02:02:11;;;;;;;38.03;24.02;;;9.50;86.90;;;;;;5013841;28;20065;-86
2022/05/09 02:04:41;;;;;;;34.25;24.20;;;9.50;86.80;;;;;;5014154;28;20064;-86
2022/05/09 02:07:17;;;;;;;32.65;22.63;;;9.40;87.00;;;;;;5015370;28;20057;-87
2022/05/09 02:09:45;;;;;;;33.70;22.63;;;9.40;87.10;;;;;;5015320;28;20100;-87
2022/05/09 02:12:12;;;;;;;34.22;22.90;;;9.50;87.00;;;;;;5016495;28;20029;-88
2022/05/09 02:14:39;;;;;;;31.23;20.77;;;9.50;86.70;;;;;;5018231;28;20033;-87
2022/05/09 02:17:08;;;;;;;29.83;21.15;;;9.50;86.60;;;;;;5014060;28;20519;-87
2022/05/09 02:19:36;;;;;;;33.53;21.33;;;9.50;86.50;;;;;;5017532;28;20074;-87
2022/05/09 02:22:02;;;;;;;29.48;21.38;;;9.60;86.50;;;;;;5035224;28;20033;-86
2022/05/09 02:24:29;;;;;;;29.10;21.77;;;9.60;86.40;;;;;;5019882;28;20029;-88
2022/05/09 02:26:57;;;;;;;32.55;20.88;;;9.50;86.20;;;;;;5029380;28;20057;-87
2022/05/09 02:29:22;;;;;;;28.63;21.40;;;9.60;86.30;;;;;;5023783;28;20026;-87
2022/05/09 02:31:48;;;;;;;32.88;21.83;;;9.60;86.00;;;;;;5044819;28;20037;-87
2022/05/09 02:34:14;;;;;;;24.75;19.88;;;9.60;86.00;;;;;;5025106;28;20096;-87
2022/05/09 02:36:40;;;;;;;27.83;20.35;;;9.60;86.10;;;;;;5017208;28;20029;-85
2022/05/09 02:39:06;;;;;;;28.20;20.30;;;9.60;86.10;;;;;;5027972;28;20424;-87
2022/05/09 02:41:32;;;;;;;26.60;20.50;;;9.50;86.10;;;;;;5029982;28;20293;-88
2022/05/09 02:43:58;;;;;;;28.63;20.83;;;9.50;86.10;;;;;;5016963;28;20677;-86
2022/05/09 02:46:25;;;;;;;30.52;20.17;;;9.50;86.10;;;;;;5011253;28;20045;-86
2022/05/09 02:48:51;;;;;;;26.52;20.02;;;9.50;86.10;;;;;;5024232;28;20033;-85
2022/05/09 02:51:17;;;;;;;28.45;19.88;;;9.50;86.00;;;;;;5025468;28;20397;-87
2022/05/09 02:53:43;;;;;;;28.90;19.63;;;9.50;85.60;;;;;;5017700;28;20037;-89
2022/05/09 02:56:10;;;;;;;25.92;19.60;;;9.60;85.50;;;;;;5018572;28;20076;-87
2022/05/09 02:58:37;;;;;;;26.65;19.48;;;9.50;85.20;;;;;;5035029;28;20033;-87
2022/05/09 03:01:04;;;;;;;26.30;19.33;;;9.50;85.20;;;;;;5020471;28;20556;-86
2022/05/09 03:06:15;;;;;;;29.13;20.38;;;9.40;84.80;;;;;;5031139;28;20114;-85
2022/05/09 03:08:41;;;;;;;27.98;19.77;;;9.40;84.60;;;;;;5022631;28;20125;-85
2022/05/09 03:11:06;;;;;;;25.17;18.90;;;9.40;84.60;;;;;;5021812;28;20037;-84
2022/05/09 03:13:34;;;;;;;29.60;19.77;;;9.40;84.40;;;;;;5048045;28;20041;-85
2022/05/09 03:16:02;;;;;;;25.25;18.92;;;9.30;84.20;;;;;;5051049;28;20090;-86
2022/05/09 03:18:27;;;;;;;26.35;19.67;;;9.20;84.20;;;;;;5031524;28;20063;-85
2022/05/09 03:20:54;;;;;;;22.25;17.92;;;9.20;84.30;;;;;;5030740;28;20089;-85
2022/05/09 03:23:19;;;;;;;27.73;19.38;;;9.10;84.40;;;;;;5048378;28;20040;-85
2022/05/09 03:25:46;;;;;;;25.42;18.67;;;9.10;84.40;;;;;;5043171;28;20022;-86
2022/05/09 03:28:15;;;;;;;24.55;17.48;;;9.10;84.30;;;;;;5031979;28;20030;-86
2022/05/09 03:30:41;;;;;;;27.05;18.05;;;9.10;84.20;;;;;;5040697;28;20108;-86
2022/05/09 03:33:07;;;;;;;32.85;18.88;;;9.10;84.20;;;;;;5028824;28;20049;-85
2022/05/09 03:35:34;;;;;;;24.25;18.08;;;9.10;84.20;;;;;;5031332;28;20038;-86
2022/05/09 03:38:00;;;;;;;27.92;18.67;;;9.10;84.10;;;;;;5008670;28;20088;-85
2022/05/09 03:40:26;;;;;;;22.40;17.45;;;9.00;84.00;;;;;;5008110;28;20046;-87
2022/05/09 03:42:51;;;;;;;26.50;18.85;;;9.00;84.00;;;;;;5018674;28;20036;-88
2022/05/09 03:45:17;;;;;;;26.27;18.02;;;9.00;83.80;;;;;;5010215;28;20439;-87
2022/05/09 03:47:43;;;;;;;27.67;18.83;;;9.00;83.50;;;;;;5020901;28;20053;-86
2022/05/09 03:50:11;;;;;;;26.35;18.02;;;8.90;83.40;;;;;;5030687;28;20094;-87
2022/05/09 03:52:37;;;;;;;24.90;17.73;;;8.90;83.50;;;;;;5019279;28;20036;-87
2022/05/09 03:55:04;;;;;;;25.02;17.35;;;8.80;83.70;;;;;;5016979;28;20040;-87
2022/05/09 03:57:30;;;;;;;25.50;17.90;;;8.80;83.80;;;;;;5029266;28;20111;-87
2022/05/09 04:00:05;;;;;;;29.15;18.38;;;8.80;83.80;;;;;;5011571;28;20054;-86
2022/05/09 04:02:31;;;;;;;26.90;17.67;;;8.70;83.80;;;;;;5015221;28;20041;-87
2022/05/09 04:04:57;;;;;;;31.20;19.33;;;8.70;84.00;;;;;;5012753;28;20758;-87
2022/05/09 04:07:22;;;;;;;25.85;19.23;;;8.80;83.90;;;;;;5013543;28;20449;-87
2022/05/09 04:09:48;;;;;;;25.98;19.08;;;8.80;84.00;;;;;;5009929;28;20048;-85
2022/05/09 04:12:14;;;;;;;28.80;18.73;;;8.80;84.00;;;;;;5017583;28;20064;-85
2022/05/09 04:17:24;;;;;;;28.08;19.02;;;8.90;83.90;;;;;;5012079;28;20084;-85
2022/05/09 04:19:50;;;;;;;24.35;18.48;;;8.90;83.80;;;;;;5012715;28;20066;-86
2022/05/09 04:22:16;;;;;;;25.50;18.38;;;8.90;83.80;;;;;;5017475;28;20122;-88
2022/05/09 04:24:43;;;;;;;27.75;18.40;;;8.90;83.70;;;;;;5016130;28;20045;-85
2022/05/09 04:27:09;;;;;;;28.45;19.38;;;9.00;83.70;;;;;;5013257;28;20079;-88
2022/05/09 04:29:35;;;;;;;26.05;19.17;;;9.00;83.60;;;;;;5014654;28;20045;-87
2022/05/09 04:32:00;;;;;;;28.40;19.98;;;9.10;83.70;;;;;;5017896;28;20034;-87
2022/05/09 04:34:26;;;;;;;28.45;20.15;;;9.00;83.90;;;;;;5011804;28;20052;-86
2022/05/09 04:36:51;;;;;;;29.77;21.98;;;9.00;84.00;;;;;;5015896;28;20029;-86
2022/05/09 04:39:20;;;;;;;29.38;21.90;;;9.00;84.30;;;;;;5014726;28;20136;-86
2022/05/09 04:41:46;;;;;;;28.98;21.95;;;9.00;84.60;;;;;;5015402;28;20103;-88
2022/05/09 04:44:12;;;;;;;27.95;20.58;;;9.00;84.90;;;;;;5008429;28;20037;-88
2022/05/09 04:46:37;;;;;;;34.90;23.58;;;9.10;85.00;;;;;;5017353;28;20072;-86
2022/05/09 04:49:03;;;;;;;29.67;22.05;;;9.10;84.80;;;;;;5016738;28;20089;-88
2022/05/09 04:51:29;;;;;;;32.17;21.88;;;9.20;84.90;;;;;;5018078;28;20108;-89
2022/05/09 04:53:55;;;;;;;28.10;21.42;;;9.30;84.90;;;;;;5016423;28;20140;-87
2022/05/09 04:56:20;;;;;;;32.88;22.48;;;9.30;84.70;;;;;;5004212;28;20038;-87
2022/05/09 04:58:46;;;;;;;31.70;21.98;;;9.40;84.60;;;;;;5012339;28;20037;-88
2022/05/09 05:01:12;;;;;;;27.83;20.95;;;9.40;84.60;;;;;;5036579;28;20033;-87
2022/05/09 05:03:38;;;;;;;29.48;22.60;;;9.40;84.70;;;;;;5024543;28;20072;-86
2022/05/09 05:06:05;;;;;;;35.75;22.67;;;9.40;84.80;;;;;;5011969;28;20125;-87
2022/05/09 05:08:33;;;;;;;31.77;21.83;;;9.40;85.10;;;;;;5012568;28;20040;-86
2022/05/09 05:11:03;;;;;;;29.77;21.45;;;9.40;85.30;;;;;;5018866;28;20042;-88
2022/05/09 05:13:29;;;;;;;30.02;22.40;;;9.50;85.40;;;;;;5026576;28;20056;-86
2022/05/09 05:15:55;;;;;;;32.78;23.17;;;9.60;85.30;;;;;;5014253;28;20485;-85
2022/05/09 05:18:23;;;;;;;30.85;23.48;;;9.60;85.50;;;;;;5020737;28;20093;-87
2022/05/09 05:20:49;;;;;;;32.65;20.25;;;10.40;85.70;;;;;;5014351;28;20151;-86
2022/05/09 05:23:15;;;;;;;27.55;18.20;;;11.60;81.50;;;;;;5021907;28;20046;-87
2022/05/09 05:25:41;;;;;;;25.95;17.95;;;12.20;77.00;;;;;;5035966;28;20113;-86
2022/05/09 05:28:08;;;;;;;27.48;17.08;;;12.30;75.80;;;;;;5014966;28;20037;-89
2022/05/09 05:30:35;;;;;;;23.23;17.52;;;11.90;76.40;;;;;;5011013;28;20045;-86
2022/05/09 05:33:02;;;;;;;21.73;17.15;;;11.50;77.00;;;;;;5012015;28;20030;-86
2022/05/09 05:35:28;;;;;;;24.20;17.15;;;11.10;79.00;;;;;;5012523;28;20752;-87
2022/05/09 05:37:54;;;;;;;23.90;17.63;;;10.70;80.20;;;;;;5018228;28;20041;-87
2022/05/09 05:40:20;;;;;;;30.55;19.02;;;10.50;81.20;;;;;;5019748;28;20075;-87
2022/05/09 05:42:50;;;;;;;31.13;19.02;;;10.60;82.10;;;;;;5016032;28;20033;-87
2022/05/09 05:45:21;;;;;;;22.88;17.25;;;10.70;82.10;;;;;;5011033;28;20052;-85
2022/05/09 05:47:47;;;;;;;22.52;17.17;;;11.40;80.30;;;;;;5014779;28;20037;-82
2022/05/09 05:50:15;;;;;;;24.77;16.05;;;12.20;77.60;;;;;;5006530;28;20115;-81
2022/05/09 05:52:41;;;;;;;25.35;16.10;;;12.90;75.60;;;;;;5012983;28;20042;-82
2022/05/09 05:55:07;;;;;;;24.60;15.90;;;13.00;73.30;;;;;;5007674;28;20045;-82
2022/05/09 05:57:35;;;;;;;20.05;15.50;;;13.00;74.50;;;;;;5006834;28;20033;-84
2022/05/09 06:00:17;;;;;;;21.27;15.70;;;12.90;74.40;;;;;;5009756;28;20469;-82
2022/05/09 06:02:43;;;;;;;23.40;15.48;;;12.70;75.30;;;;;;5003073;28;20040;-81
2022/05/09 06:05:10;;;;;;;23.00;15.68;;;12.60;74.80;;;;;;5013115;28;20544;-81
2022/05/09 06:07:37;;;;;;;22.83;15.00;;;12.50;75.60;;;;;;5003888;28;20476;-84
2022/05/09 06:10:04;;;;;;;21.90;14.85;;;12.40;75.20;;;;;;4994797;28;20368;-86
2022/05/09 06:12:30;;;;;;;22.55;14.77;;;12.50;75.80;;;;;;5001621;28;20555;-82
2022/05/09 06:17:40;;;;;;;21.40;15.20;;;12.60;75.20;;;;;;5013797;28;20040;-83
2022/05/09 06:20:08;;;;;;;20.73;14.90;;;12.80;74.20;;;;;;5000304;28;20037;-83
2022/05/09 06:22:36;;;;;;;21.60;14.02;;;12.90;74.40;;;;;;5017044;28;20092;-80
2022/05/09 06:25:03;;;;;;;24.05;15.15;;;12.90;73.90;;;;;;5011102;28;20903;-83
2022/05/09 06:27:29;;;;;;;20.25;14.57;;;13.10;74.20;;;;;;5014093;28;20033;-84
2022/05/09 06:29:55;;;;;;;18.95;13.77;;;13.00;73.70;;;;;;5002586;28;20042;-82
2022/05/09 06:32:24;;;;;;;22.02;14.45;;;13.10;73.50;;;;;;5019131;28;20037;-84
2022/05/09 06:34:50;;;;;;;21.52;14.73;;;13.40;73.00;;;;;;5022106;28;20041;-83
2022/05/09 06:37:16;;;;;;;21.90;14.30;;;13.50;71.70;;;;;;5019268;28;20208;-84
2022/05/09 06:39:42;;;;;;;20.67;14.88;;;13.60;71.20;;;;;;5019370;28;20042;-80
2022/05/09 06:42:08;;;;;;;16.75;13.57;;;13.60;71.40;;;;;;5009987;28;20072;-79
2022/05/09 06:44:35;;;;;;;19.98;13.73;;;13.70;71.10;;;;;;5012296;28;20373;-81
2022/05/09 06:47:04;;;;;;;19.30;13.43;;;14.00;70.20;;;;;;5004402;28;20563;-80
2022/05/09 06:49:31;;;;;;;21.52;13.75;;;14.10;69.90;;;;;;4992365;28;20467;-80
2022/05/09 06:51:57;;;;;;;21.48;13.60;;;14.20;70.10;;;;;;4997083;28;20041;-79
2022/05/09 06:54:23;;;;;;;19.80;12.73;;;14.40;69.40;;;;;;5004632;28;20036;-79
2022/05/09 06:56:49;;;;;;;16.98;12.32;;;14.70;68.30;;;;;;5006118;28;20108;-81
2022/05/09 06:59:16;;;;;;;20.13;13.68;;;14.80;67.30;;;;;;4999208;28;20070;-82
2022/05/09 07:01:43;;;;;;;21.50;13.20;;;14.90;67.40;;;;;;5011774;28;20137;-80
2022/05/09 07:04:10;;;;;;;18.17;12.65;;;15.10;67.60;;;;;;5011138;28;20052;-78
2022/05/09 07:06:35;;;;;;;20.63;12.85;;;15.10;67.50;;;;;;5013672;28;20037;-81
2022/05/09 07:09:02;;;;;;;18.80;11.63;;;15.30;65.80;;;;;;5008356;28;20447;-82
2022/05/09 07:11:28;;;;;;;20.65;13.07;;;15.50;66.10;;;;;;5006857;28;20041;-86
2022/05/09 07:13:54;;;;;;;16.70;12.57;;;15.80;64.60;;;;;;5015466;28;20049;-81
2022/05/09 07:16:20;;;;;;;19.88;12.45;;;15.90;64.20;;;;;;5012481;28;20319;-82
2022/05/09 07:18:46;;;;;;;17.23;12.40;;;16.10;64.30;;;;;;5005502;28;20041;-83
2022/05/09 07:21:12;;;;;;;21.52;11.85;;;16.30;63.50;;;;;;5011471;28;20061;-84
2022/05/09 07:23:38;;;;;;;16.48;11.15;;;16.50;63.20;;;;;;5017630;28;20178;-83
2022/05/09 07:26:04;;;;;;;18.55;11.52;;;16.70;62.40;;;;;;5009579;28;20112;-84
2022/05/09 07:28:30;;;;;;;16.63;11.70;;;16.70;61.10;;;;;;5013632;28;20322;-81
2022/05/09 07:30:58;;;;;;;19.75;11.85;;;16.80;61.60;;;;;;5014198;28;20041;-83
2022/05/09 07:33:24;;;;;;;20.92;13.25;;;17.10;60.90;;;;;;5017744;28;20034;-84
2022/05/09 07:35:50;;;;;;;16.17;12.02;;;17.10;60.40;;;;;;5008926;28;20040;-82
2022/05/09 07:38:16;;;;;;;16.58;11.43;;;17.30;60.90;;;;;;5010220;28;20029;-84
2022/05/09 07:40:44;;;;;;;17.63;11.32;;;17.60;59.20;;;;;;5010272;28;20030;-85
2022/05/09 07:43:14;;;;;;;17.20;11.13;;;17.70;59.30;;;;;;5003634;28;20481;-82
2022/05/09 07:45:42;;;;;;;18.90;11.48;;;17.80;58.30;;;;;;5014946;28;20544;-81
2022/05/09 07:48:09;;;;;;;17.75;10.73;;;18.10;57.90;;;;;;5008741;28;20052;-84
2022/05/09 07:50:35;;;;;;;18.50;11.40;;;18.30;57.30;;;;;;5011980;28;20125;-82
2022/05/09 07:53:09;;;;;;;18.85;10.73;;;18.40;56.70;;;;;;5009918;28;20100;-81
2022/05/09 07:55:35;;;;;;;19.85;10.57;;;18.60;56.90;;;;;;5015897;28;20425;-83
2022/05/09 07:58:01;;;;;;;17.42;10.52;;;18.90;56.00;;;;;;5019466;28;20153;-84
2022/05/09 08:00:27;;;;;;;16.23;9.85;;;19.00;54.80;;;;;;5024000;28;20393;-82
2022/05/09 08:02:53;;;;;;;18.27;9.70;;;18.90;54.90;;;;;;5008928;28;20037;-81
2022/05/09 08:05:19;;;;;;;17.02;9.55;;;19.10;54.30;;;;;;5012585;28;20033;-82
2022/05/09 08:07:45;;;;;;;15.43;8.98;;;19.20;53.90;;;;;;5015610;28;20095;-81
2022/05/09 08:10:11;;;;;;;17.27;8.90;;;19.20;54.40;;;;;;5012009;28;20034;-80
2022/05/09 08:12:38;;;;;;;14.32;9.32;;;19.40;53.70;;;;;;5011102;28;20522;-81
2022/05/09 08:15:06;;;;;;;16.63;9.23;;;19.60;53.20;;;;;;5016828;28;20371;-82
2022/05/09 08:17:32;;;;;;;16.27;9.95;;;19.80;52.10;;;;;;5019837;28;20064;-80
2022/05/09 08:19:58;;;;;;;17.63;9.85;;;19.90;52.20;;;;;;5020753;28;20042;-82
2022/05/09 08:22:28;;;;;;;15.00;9.00;;;20.10;52.20;;;;;;5016205;28;20346;-83
2022/05/09 08:24:59;;;;;;;13.90;8.45;;;20.10;50.30;;;;;;5015335;28;20037;-86
2022/05/09 08:27:25;;;;;;;15.77;8.10;;;20.10;50.60;;;;;;5009634;28;20030;-81
2022/05/09 08:29:54;;;;;;;14.38;8.15;;;20.30;50.20;;;;;;5016087;28;20033;-83
2022/05/09 08:32:20;;;;;;;14.68;8.00;;;20.60;49.90;;;;;;5004014;28;20497;-80
2022/05/09 08:34:45;;;;;;;13.23;7.95;;;20.60;49.40;;;;;;5006814;28;20096;-81
2022/05/09 08:37:11;;;;;;;14.80;7.82;;;20.60;49.10;;;;;;5005916;28;20088;-81
2022/05/09 08:39:37;;;;;;;12.18;7.43;;;20.70;48.90;;;;;;5001410;28;20042;-82
2022/05/09 08:42:07;;;;;;;14.45;7.18;;;21.00;49.00;;;;;;5011981;28;20025;-81
2022/05/09 08:44:45;;;;;;;16.00;7.05;;;21.30;47.90;;;;;;5018426;28;20029;-81
2022/05/09 08:47:41;;;;;;;11.68;6.78;;;21.60;46.40;;;;;;5014751;28;20554;-80
2022/05/09 08:50:15;;;;;;;13.98;6.85;;;21.60;46.30;;;;;;5015642;28;20037;-81
2022/05/09 08:52:49;;;;;;;11.68;5.70;;;21.70;44.30;;;;;;5007528;28;20050;-82
2022/05/09 08:55:17;;;;;;;12.18;5.82;;;21.60;44.80;;;;;;5014950;28;20443;-83
2022/05/09 08:57:49;;;;;;;14.15;7.38;;;21.70;44.30;;;;;;5014707;28;20861;-82
2022/05/09 09:00:18;;;;;;;16.30;8.75;;;21.60;44.30;;;;;;5003254;28;20484;-82
2022/05/09 09:02:56;;;;;;;24.63;14.43;;;22.00;45.50;;;;;;5018159;28;20038;-83
2022/05/09 09:05:24;;;;;;;13.05;6.50;;;22.20;42.50;;;;;;5017890;28;20444;-80
2022/05/09 09:08:19;;;;;;;15.82;6.00;;;22.20;43.50;;;;;;5011801;28;20037;-82
2022/05/09 09:11:12;;;;;;;11.65;5.43;;;22.60;41.90;;;;;;5015112;28;20041;-81
2022/05/09 09:13:47;;;;;;;12.60;5.88;;;22.60;42.40;;;;;;5008370;28;20033;-81
2022/05/09 09:16:27;;;;;;;15.00;5.30;;;22.60;42.40;;;;;;5015526;28;21829;-80
2022/05/09 09:19:20;;;;;;;10.38;4.90;;;22.90;41.90;;;;;;5003102;28;20060;-83
2022/05/09 09:21:53;;;;;;;12.75;5.50;;;22.80;39.80;;;;;;5004886;28;20044;-79
2022/05/09 09:24:25;;;;;;;11.75;5.25;;;22.70;40.20;;;;;;5004628;28;20483;-82
2022/05/09 09:27:28;;;;;;;12.30;5.50;;;22.90;41.10;;;;;;5019580;28;20025;-80
2022/05/09 09:29:59;;;;;;;11.02;4.10;;;22.70;39.60;;;;;;5023592;28;20491;-80
2022/05/09 09:32:25;;;;;;;12.77;5.07;;;22.50;39.50;;;;;;5004757;28;20048;-81
2022/05/09 09:34:56;;;;;;;12.32;4.30;;;22.30;40.70;;;;;;5002285;28;20033;-80
2022/05/09 09:37:56;;;;;;;11.80;4.28;;;22.60;40.30;;;;;;5005769;28;20499;-79
2022/05/09 09:40:22;;;;;;;9.27;3.53;;;22.80;40.30;;;;;;5008179;28;20099;-82
2022/05/09 09:42:54;;;;;;;9.95;3.97;;;22.90;40.10;;;;;;5009162;28;20056;-81
2022/05/09 09:45:40;;;;;;;10.23;4.00;;;23.30;37.60;;;;;;5012121;28;20030;-79
2022/05/09 09:48:21;;;;;;;9.82;4.28;;;22.80;39.30;;;;;;5006341;28;20355;-81
2022/05/09 09:51:10;;;;;;;10.98;3.55;;;23.10;39.00;;;;;;5003244;28;20097;-80
2022/05/09 09:53:47;;;;;;;9.02;3.50;;;23.40;38.90;;;;;;4993097;28;20586;-81
2022/05/09 09:56:22;;;;;;;9.65;3.55;;;23.40;38.40;;;;;;5001760;28;20374;-79
2022/05/09 09:59:14;;;;;;;8.60;3.45;;;23.60;38.20;;;;;;5017157;28;20121;-81
2022/05/09 10:01:40;;;;;;;11.70;3.72;;;23.90;37.30;;;;;;5013052;28;20045;-82
2022/05/09 10:04:26;;;;;;;9.55;3.67;;;23.80;37.40;;;;;;5006869;28;20344;-81
2022/05/09 10:07:06;;;;;;;9.95;3.28;;;24.00;37.10;;;;;;5017968;28;20389;-82
2022/05/09 10:09:44;;;;;;;9.95;4.10;;;24.00;36.50;;;;;;5021662;28;20034;-83
2022/05/09 10:12:14;;;;;;;9.85;4.35;;;24.20;35.90;;;;;;5009190;28;20091;-81
2022/05/09 10:14:40;;;;;;;12.00;4.07;;;24.10;35.90;;;;;;5018421;28;20046;-82
2022/05/09 10:17:26;;;;;;;10.68;3.95;;;24.10;35.30;;;;;;5007843;28;20038;-80
2022/05/09 10:19:58;;;;;;;8.93;3.55;;;23.60;37.00;;;;;;5007378;28;20140;-81
2022/05/09 10:25:59;;;;;;;12.02;3.67;;;23.80;37.30;;;;;;5022736;28;20043;-79
2022/05/09 10:28:28;;;;;;;9.95;3.50;;;24.10;36.70;;;;;;5009817;28;20052;-82
2022/05/09 10:31:01;;;;;;;10.38;3.53;;;24.60;37.00;;;;;;5014775;28;20718;-80
2022/05/09 10:33:41;;;;;;;12.10;3.70;;;24.80;35.70;;;;;;5014980;28;20038;-80
2022/05/09 10:36:21;;;;;;;11.55;4.15;;;24.90;35.70;;;;;;5005960;28;20387;-80
2022/05/09 10:39:02;;;;;;;9.48;4.20;;;24.30;36.10;;;;;;5009826;28;20042;-81
2022/05/09 10:41:55;;;;;;;9.70;4.32;;;24.30;35.60;;;;;;5008433;28;20314;-79
2022/05/09 10:44:34;;;;;;;8.77;3.67;;;24.50;36.00;;;;;;4997922;28;20393;-82
2022/05/09 10:47:05;;;;;;;12.85;4.03;;;24.70;36.50;;;;;;5007998;28;20109;-80
2022/05/09 10:49:46;;;;;;;10.75;4.00;;;25.10;36.50;;;;;;5007629;28;20376;-79
2022/05/09 10:52:20;;;;;;;9.98;4.10;;;25.20;35.60;;;;;;5002653;28;20816;-81
2022/05/09 10:55:33;;;;;;;9.30;4.55;;;24.80;35.50;;;;;;5006123;28;20408;-83
2022/05/09 10:58:20;;;;;;;8.35;4.40;;;25.00;35.40;;;;;;4951002;28;20697;-85
2022/05/09 11:00:51;;;;;;;9.90;5.00;;;24.90;36.50;;;;;;5027033;28;20124;-82
2022/05/09 11:03:34;;;;;;;9.52;4.50;;;24.90;35.90;;;;;;5005276;28;20042;-85
2022/05/09 11:06:12;;;;;;;9.77;3.88;;;25.10;35.10;;;;;;5012150;28;20064;-81
2022/05/09 11:09:05;;;;;;;8.35;3.55;;;25.30;35.90;;;;;;5000383;28;20042;-82
2022/05/09 11:11:49;;;;;;;8.17;3.87;;;25.50;35.60;;;;;;5014304;28;20116;-82
2022/05/09 11:14:48;;;;;;;10.70;3.88;;;25.70;36.10;;;;;;5006609;28;20050;-81
2022/05/09 11:17:39;;;;;;;10.43;4.07;;;25.80;35.10;;;;;;5013506;28;20034;-83
2022/05/09 11:20:28;;;;;;;10.75;3.85;;;26.00;34.60;;;;;;5006625;28;20046;-82
2022/05/09 11:23:20;;;;;;;9.20;4.10;;;25.60;35.00;;;;;;5016664;28;20200;-82
2022/05/09 11:25:55;;;;;;;11.18;4.72;;;25.80;36.30;;;;;;4965205;28;20041;-79
2022/05/09 11:28:36;;;;;;;11.70;5.75;;;25.80;36.20;;;;;;5015457;28;20041;-83
2022/05/09 11:31:41;;;;;;;13.30;5.63;;;25.60;36.90;;;;;;5012902;28;20049;-84
2022/05/09 11:34:25;;;;;;;;;;;25.60;37.30;;;;;;5008700;28;20493;-82
2022/05/09 11:37:38;;;;;;;17.47;5.30;;;25.30;36.60;;;;;;5010212;28;19923;-86
2022/05/09 11:40:35;;;;;;;11.27;5.90;;;25.30;37.60;;;;;;4999007;28;20076;-82
2022/05/09 11:45:59;;;;;;;11.25;6.30;;;25.80;37.10;;;;;;5018920;28;20095;-81
2022/05/09 11:48:34;;;;;;;11.65;6.28;;;25.80;36.40;;;;;;5029028;28;20067;-82
2022/05/09 11:51:09;;;;;;;10.27;6.15;;;25.70;36.50;;;;;;5033499;28;20054;-81
2022/05/09 11:53:40;;;;;;;10.40;6.03;;;25.90;36.90;;;;;;5013219;28;20044;-81
2022/05/09 11:56:07;;;;;;;12.68;6.75;;;26.00;36.40;;;;;;5010515;28;20590;-83
2022/05/09 11:58:43;;;;;;;12.80;5.90;;;26.10;35.60;;;;;;5019251;28;20065;-80
2022/05/09 12:01:10;;;;;;;11.45;6.95;;;26.10;36.10;;;;;;5010560;28;20679;-82
2022/05/09 12:03:42;;;;;;;10.98;6.75;;;26.00;36.20;;;;;;5011490;28;20065;-82
2022/05/09 12:06:28;;;;;;;11.63;5.97;;;26.10;35.80;;;;;;5012753;28;20053;-81
2022/05/09 12:08:56;;;;;;;13.30;6.55;;;25.90;36.30;;;;;;5014500;28;20044;-85
2022/05/09 12:11:29;;;;;;;10.82;7.15;;;26.10;36.80;;;;;;5020128;28;20142;-82
2022/05/09 12:13:57;;;;;;;11.88;6.80;;;26.00;36.80;;;;;;5016917;28;20030;-83
2022/05/09 12:16:35;;;;;;;12.30;6.55;;;26.10;37.30;;;;;;5006906;28;20049;-80
2022/05/09 12:19:20;;;;;;;11.25;6.20;;;26.50;36.60;;;;;;5013007;28;20377;-82
2022/05/09 12:22:24;;;;;;;12.60;6.20;;;26.30;36.60;;;;;;5011094;28;20060;-84
2022/05/09 12:24:49;;;;;;;11.15;6.85;;;26.40;36.50;;;;;;5009480;28;20045;-84
2022/05/09 12:27:43;;;;;;;12.68;6.07;;;26.50;36.40;;;;;;5008007;28;20041;-81
2022/05/09 12:30:14;;;;;;;13.53;7.03;;;26.70;36.60;;;;;;5014476;28;20041;-82
2022/05/09 12:32:46;;;;;;;13.60;7.47;;;26.70;36.00;;;;;;5018802;28;20029;-82
2022/05/09 12:35:13;;;;;;;12.63;6.25;;;26.80;36.20;;;;;;5007280;28;20067;-82
2022/05/09 12:37:45;;;;;;;16.88;6.40;;;27.10;35.40;;;;;;5010067;28;20045;-83
2022/05/09 12:40:22;;;;;;;14.73;5.80;;;27.10;35.30;;;;;;5004172;28;20092;-83
2022/05/09 12:42:56;;;;;;;10.73;5.45;;;27.30;35.50;;;;;;5014408;28;20037;-85
2022/05/09 12:45:22;;;;;;;9.90;5.50;;;27.10;35.80;;;;;;5007792;28;20041;-85
2022/05/09 12:47:49;;;;;;;11.55;6.28;;;27.20;35.70;;;;;;5015068;28;20068;-81
2022/05/09 12:50:28;;;;;;;10.82;6.10;;;27.20;34.90;;;;;;5005681;28;20057;-83
2022/05/09 12:53:03;;;;;;;12.10;6.18;;;27.40;34.30;;;;;;5024244;28;20048;-83
2022/05/09 12:55:53;;;;;;;11.93;6.40;;;27.50;34.80;;;;;;5025605;28;20042;-85
2022/05/09 12:58:30;;;;;;;10.52;5.40;;;27.30;35.50;;;;;;5025279;28;20038;-85
2022/05/09 13:01:05;;;;;;;13.75;5.78;;;27.40;35.40;;;;;;5026263;28;20524;-83
2022/05/09 13:03:31;;;;;;;14.25;6.25;;;27.40;36.00;;;;;;5027501;28;20198;-85
2022/05/09 13:06:11;;;;;;;12.27;6.20;;;27.30;35.50;;;;;;5024897;28;20064;-85
2022/05/09 13:08:39;;;;;;;11.73;5.90;;;27.30;35.60;;;;;;5026993;28;20033;-85
2022/05/09 13:11:14;;;;;;;12.90;6.50;;;27.20;35.90;;;;;;5029162;28;20022;-86